createdAt,value
2023-03-24T00:01:09.688Z,14.27
2023-03-24T00:03:38.109Z,14.21
2023-03-24T00:06:07.365Z,13.88
2023-03-24T00:08:37.024Z,13.49
2023-03-24T00:11:07.504Z,13.70
2023-03-24T00:13:39.084Z,13.96
2023-03-24T00:16:12.433Z,13.81
2023-03-24T00:18:40.830Z,13.94
2023-03-24T00:21:09.186Z,13.86
2023-03-24T00:23:36.804Z,13.97
2023-03-24T00:26:09.012Z,14.06
2023-03-24T00:28:37.344Z,14.14
2023-03-24T00:31:06.522Z,14.16
2023-03-24T00:33:35.275Z,14.08
2023-03-24T00:36:05.704Z,13.86
2023-03-24T00:38:34.911Z,13.95
2023-03-24T00:41:02.626Z,13.75
2023-03-24T00:43:30.829Z,13.73
2023-03-24T00:46:02.015Z,13.72
2023-03-24T00:48:30.981Z,13.80
2023-03-24T00:51:02.782Z,13.77
2023-03-24T00:53:30.458Z,13.74
2023-03-24T00:55:58.686Z,13.82
2023-03-24T00:58:26.339Z,13.66
2023-03-24T01:00:57.326Z,13.85
2023-03-24T01:03:27.736Z,13.56
2023-03-24T01:06:02.941Z,13.64
2023-03-24T01:08:30.978Z,13.60
2023-03-24T01:11:01.296Z,13.61
2023-03-24T01:13:30.058Z,13.60
2023-03-24T01:15:58.571Z,13.70
2023-03-24T01:18:27.763Z,13.59
2023-03-24T01:20:55.292Z,13.73
2023-03-24T01:23:26.125Z,13.60
2023-03-24T01:25:54.448Z,13.36
2023-03-24T01:28:25.099Z,13.45
2023-03-24T01:30:54.287Z,13.00
2023-03-24T01:33:22.360Z,13.43
2023-03-24T01:35:50.144Z,13.64
2023-03-24T01:38:18.221Z,13.95
2023-03-24T01:40:47.511Z,13.95
2023-03-24T01:43:27.918Z,13.96
2023-03-24T01:46:08.192Z,13.54
2023-03-24T01:48:41.803Z,13.56
2023-03-24T01:51:22.757Z,13.63
2023-03-24T01:54:02.833Z,13.29
2023-03-24T01:56:34.642Z,13.36
2023-03-24T01:59:10.537Z,13.00
2023-03-24T02:01:44.929Z,13.19
2023-03-24T02:04:38.852Z,13.36
2023-03-24T02:07:38.263Z,13.19
2023-03-24T02:10:13.838Z,13.22
2023-03-24T02:12:44.658Z,12.66
2023-03-24T02:15:14.840Z,12.25
2023-03-24T02:17:57.280Z,12.82
2023-03-24T02:20:50.813Z,13.10
2023-03-24T02:23:31.236Z,12.96
2023-03-24T02:26:19.513Z,12.96
2023-03-24T02:29:18.263Z,12.87
2023-03-24T02:32:00.742Z,12.66
2023-03-24T02:35:14.273Z,12.70
2023-03-24T02:37:47.870Z,11.91
2023-03-24T02:40:17.306Z,12.30
2023-03-24T02:43:14.258Z,12.38
2023-03-24T02:46:20.177Z,12.52
2023-03-24T02:49:07.650Z,12.50
2023-03-24T02:51:56.182Z,12.86
2023-03-24T02:54:54.619Z,13.05
2023-03-24T02:57:29.941Z,12.85
2023-03-24T03:00:33.188Z,13.02
2023-03-24T03:03:39.598Z,12.98
2023-03-24T03:06:13.682Z,12.87
2023-03-24T03:08:43.055Z,12.97
2023-03-24T03:11:14.600Z,12.95
2023-03-24T03:13:52.612Z,12.96
2023-03-24T03:16:34.880Z,12.95
2023-03-24T03:19:09.977Z,12.97
2023-03-24T03:21:43.492Z,12.91
2023-03-24T03:24:15.634Z,12.78
2023-03-24T03:26:47.380Z,12.62
2023-03-24T03:29:22.123Z,12.53
2023-03-24T03:31:59.279Z,12.58
2023-03-24T03:34:41.124Z,12.68
2023-03-24T03:37:11.624Z,12.34
2023-03-24T03:39:50.510Z,12.35
2023-03-24T03:42:19.142Z,12.09
2023-03-24T03:44:47.075Z,12.06
2023-03-24T03:47:15.832Z,12.10
2023-03-24T03:49:46.294Z,12.17
2023-03-24T03:52:14.660Z,12.35
2023-03-24T03:54:44.022Z,12.28
2023-03-24T03:57:13.520Z,12.21
2023-03-24T04:00:20.427Z,12.12
2023-03-24T04:03:42.163Z,12.15
2023-03-24T04:06:33.172Z,12.22
2023-03-24T04:09:13.027Z,12.19
2023-03-24T04:11:42.613Z,12.15
2023-03-24T04:14:41.238Z,11.99
2023-03-24T04:18:06.510Z,11.98
2023-03-24T04:21:03.201Z,12.05
2023-03-24T04:23:33.883Z,11.94
2023-03-24T04:26:06.874Z,11.83
2023-03-24T04:28:48.111Z,11.88
2023-03-24T04:31:23.539Z,12.10
2023-03-24T04:34:03.599Z,12.02
2023-03-24T04:37:02.850Z,12.16
2023-03-24T04:39:43.229Z,12.14
2023-03-24T04:42:28.534Z,11.55
2023-03-24T04:44:57.725Z,11.56
2023-03-24T04:47:57.042Z,11.53
2023-03-24T04:50:40.548Z,11.24
2023-03-24T04:53:14.102Z,11.39
2023-03-24T04:55:51.175Z,11.05
2023-03-24T04:58:37.274Z,11.38
2023-03-24T05:01:06.131Z,11.31
2023-03-24T05:03:39.936Z,11.58
2023-03-24T05:06:08.446Z,11.89
2023-03-24T05:08:36.588Z,11.67
2023-03-24T05:11:04.324Z,11.73
2023-03-24T05:13:33.493Z,11.92
2023-03-24T05:16:03.102Z,11.99
2023-03-24T05:18:41.006Z,11.56
2023-03-24T05:21:09.332Z,11.65
2023-03-24T05:23:37.353Z,11.62
2023-03-24T05:26:05.953Z,11.68
2023-03-24T05:28:44.350Z,11.74
2023-03-24T05:31:13.412Z,11.95
2023-03-24T05:33:49.174Z,12.17
2023-03-24T05:36:19.939Z,12.21
2023-03-24T05:38:54.844Z,12.24
2023-03-24T05:41:24.882Z,12.48
2023-03-24T05:44:08.406Z,12.66
2023-03-24T05:46:36.070Z,12.74
2023-03-24T05:49:04.594Z,12.87
2023-03-24T05:51:35.445Z,13.09
2023-03-24T05:54:06.362Z,13.08
2023-03-24T05:56:40.686Z,13.21
2023-03-24T05:59:27.295Z,13.25
2023-03-24T06:02:30.296Z,13.53
2023-03-24T06:05:08.323Z,13.51
2023-03-24T06:07:38.421Z,13.91
2023-03-24T06:10:10.070Z,14.02
2023-03-24T06:12:44.978Z,14.13
2023-03-24T06:15:17.476Z,14.46
2023-03-24T06:17:47.902Z,14.65
2023-03-24T06:20:26.044Z,14.70
2023-03-24T06:23:07.284Z,14.88
2023-03-24T06:25:55.673Z,15.14
2023-03-24T06:28:26.336Z,14.97
2023-03-24T06:30:58.905Z,14.80
2023-03-24T06:33:32.828Z,15.09
2023-03-24T06:36:01.908Z,15.09
2023-03-24T06:38:31.128Z,14.71
2023-03-24T06:41:03.982Z,15.13
2023-03-24T06:43:33.032Z,15.23
2023-03-24T06:46:01.072Z,15.35
2023-03-24T06:48:34.633Z,15.16
2023-03-24T06:51:07.602Z,15.51
2023-03-24T06:53:35.626Z,15.48
2023-03-24T06:56:03.802Z,15.09
2023-03-24T06:58:38.789Z,15.75
2023-03-24T07:01:08.726Z,16.00
2023-03-24T07:03:41.949Z,16.12
2023-03-24T07:06:29.847Z,16.49
2023-03-24T07:09:03.283Z,15.92
2023-03-24T07:11:31.782Z,16.47
2023-03-24T07:14:01.660Z,16.79
2023-03-24T07:16:31.283Z,17.48
2023-03-24T07:19:07.852Z,16.85
2023-03-24T07:21:38.198Z,16.76
2023-03-24T07:24:06.550Z,17.16
2023-03-24T07:26:42.689Z,17.47
2023-03-24T07:29:19.778Z,17.07
2023-03-24T07:32:01.195Z,17.71
2023-03-24T07:34:29.257Z,19.14
2023-03-24T07:36:56.843Z,20.32
2023-03-24T07:39:24.531Z,20.21
2023-03-24T07:41:52.054Z,20.29
2023-03-24T07:44:29.695Z,19.96
2023-03-24T07:47:01.381Z,18.89
2023-03-24T07:49:33.472Z,18.05
2023-03-24T07:52:07.126Z,18.47
2023-03-24T07:54:48.861Z,18.06
2023-03-24T07:57:43.850Z,18.03
2023-03-24T08:00:42.974Z,17.49
2023-03-24T08:03:28.140Z,16.71
2023-03-24T08:06:19.382Z,17.08
2023-03-24T08:08:56.904Z,16.71
2023-03-24T08:11:25.798Z,17.32
2023-03-24T08:13:53.388Z,17.10
2023-03-24T08:16:24.856Z,16.48
2023-03-24T08:18:53.312Z,16.55
2023-03-24T08:21:28.868Z,17.37
2023-03-24T08:37:28.101Z,18.57
2023-03-24T08:39:58.988Z,18.87
2023-03-24T08:42:26.778Z,19.42
2023-03-24T08:54:03.750Z,18.37
2023-03-24T08:56:31.447Z,18.85
2023-03-24T08:58:59.259Z,19.17
2023-03-24T09:01:27.555Z,18.94
2023-03-24T09:03:56.461Z,20.01
2023-03-24T09:15:34.920Z,22.83
2023-03-24T09:18:03.123Z,22.69
2023-03-24T09:20:31.155Z,21.95
2023-03-24T09:36:44.310Z,20.18
2023-03-24T09:44:10.580Z,21.01
2023-03-24T09:46:51.358Z,20.55
2023-03-24T09:58:31.514Z,21.17
2023-03-24T10:00:59.150Z,20.93
2023-03-24T10:03:28.308Z,20.71
2023-03-24T10:15:37.749Z,22.18
2023-03-24T10:18:15.357Z,22.26
2023-03-24T10:25:23.026Z,22.94
2023-03-24T10:36:58.494Z,23.55
2023-03-24T10:40:19.432Z,23.79
2023-03-24T10:47:22.660Z,24.59
2023-03-24T10:49:57.108Z,24.22
2023-03-24T10:52:25.108Z,24.18
2023-03-24T11:04:07.870Z,22.98
2023-03-24T11:06:40.646Z,23.33
2023-03-24T11:09:21.332Z,23.50
2023-03-24T11:11:50.904Z,23.84
2023-03-24T11:14:27.468Z,23.24
2023-03-24T11:17:12.882Z,23.09
2023-03-24T11:19:49.975Z,23.12
2023-03-24T11:36:08.769Z,23.04
2023-03-24T11:47:42.841Z,23.16
2023-03-24T11:50:10.152Z,23.29
2023-03-24T11:52:55.399Z,22.93
2023-03-24T12:09:17.052Z,23.59
2023-03-24T12:21:05.073Z,23.68
2023-03-24T12:23:38.298Z,23.37
2023-03-24T12:26:26.042Z,23.59
2023-03-24T12:28:59.260Z,23.35
2023-03-24T12:31:28.897Z,23.48
2023-03-24T12:34:05.092Z,23.17
2023-03-24T12:36:57.540Z,23.17
2023-03-24T12:53:08.127Z,23.57
2023-03-24T13:04:47.896Z,23.24
2023-03-24T13:07:21.604Z,22.95
2023-03-24T13:10:14.910Z,23.18
2023-03-24T13:12:51.031Z,22.89
2023-03-24T13:15:24.825Z,23.20
2023-03-24T13:18:09.146Z,23.04
2023-03-24T13:20:54.963Z,23.01
2023-03-24T13:32:24.116Z,23.62
2023-03-24T13:35:25.576Z,23.50
2023-03-24T13:38:24.088Z,23.55
2023-03-24T13:40:54.198Z,23.77
2023-03-24T13:43:24.878Z,23.67
2023-03-24T13:46:00.253Z,23.88
2023-03-24T13:48:32.290Z,23.59
2023-03-24T13:51:02.056Z,23.13
2023-03-24T13:53:34.123Z,23.37
2023-03-24T14:05:22.489Z,23.40
2023-03-24T14:21:34.584Z,23.06
2023-03-24T14:38:01.648Z,22.92
2023-03-24T14:43:42.041Z,22.60
2023-03-24T14:46:23.935Z,22.82
2023-03-24T14:49:04.159Z,22.64
2023-03-24T14:51:39.344Z,22.75
2023-03-24T15:00:57.952Z,22.74
2023-03-24T15:07:29.984Z,22.95
2023-03-24T15:10:23.023Z,22.90
2023-03-24T15:20:48.492Z,22.17
2023-03-24T15:29:43.846Z,21.34
2023-03-24T15:35:59.562Z,21.44
2023-03-24T15:39:07.175Z,21.40
2023-03-24T15:42:25.885Z,21.62
2023-03-24T15:44:54.724Z,21.50
2023-03-24T15:47:29.510Z,21.58
2023-03-24T15:49:59.350Z,21.40
2023-03-24T15:52:37.767Z,21.25
2023-03-24T15:55:24.231Z,21.63
2023-03-24T15:57:55.635Z,21.71
2023-03-24T16:00:40.443Z,21.66
2023-03-24T16:03:15.391Z,21.55
2023-03-24T16:05:48.488Z,21.49
2023-03-24T16:08:35.871Z,21.47
2023-03-24T16:11:08.076Z,21.38
2023-03-24T16:13:35.892Z,21.42
2023-03-24T16:16:15.203Z,21.49
2023-03-24T16:18:45.338Z,21.26
2023-03-24T16:21:28.073Z,21.10
2023-03-24T16:23:57.993Z,21.23
2023-03-24T16:26:28.959Z,21.10
2023-03-24T16:29:03.869Z,20.89
2023-03-24T16:31:35.110Z,20.90
2023-03-24T16:34:02.861Z,21.05
2023-03-24T16:36:30.438Z,20.92
2023-03-24T16:39:01.714Z,20.78
2023-03-24T16:41:30.451Z,20.50
2023-03-24T16:43:57.986Z,20.45
2023-03-24T16:46:28.221Z,20.82
2023-03-24T16:48:56.076Z,20.60
2023-03-24T16:51:23.954Z,20.76
2023-03-24T16:53:51.459Z,20.79
2023-03-24T16:56:20.994Z,20.79
2023-03-24T16:58:49.546Z,20.81
2023-03-24T17:01:27.001Z,20.88
2023-03-24T17:03:56.114Z,20.97
2023-03-24T17:06:24.966Z,20.79
2023-03-24T17:08:52.565Z,20.65
2023-03-24T17:11:27.558Z,20.55
2023-03-24T17:14:01.982Z,20.31
2023-03-24T17:16:29.699Z,20.14
2023-03-24T17:19:03.816Z,20.47
2023-03-24T17:21:34.534Z,20.26
2023-03-24T17:24:02.948Z,20.26
2023-03-24T17:26:31.871Z,20.33
2023-03-24T17:28:59.533Z,20.24
2023-03-24T17:31:27.064Z,19.97
2023-03-24T17:33:54.822Z,19.94
2023-03-24T17:36:22.367Z,19.91
2023-03-24T17:38:49.754Z,19.92
2023-03-24T17:41:17.324Z,20.09
2023-03-24T17:43:46.567Z,19.92
2023-03-24T17:46:14.348Z,19.96
2023-03-24T17:48:43.524Z,20.00
2023-03-24T17:51:12.534Z,20.07
2023-03-24T17:53:40.106Z,20.04
2023-03-24T17:56:07.885Z,20.17
2023-03-24T17:58:35.855Z,20.22
2023-03-24T18:01:07.708Z,20.13
2023-03-24T18:03:38.358Z,20.09
2023-03-24T18:06:08.091Z,20.23
2023-03-24T18:08:36.731Z,20.16
2023-03-24T18:11:07.032Z,20.22
2023-03-24T18:13:34.918Z,20.24
2023-03-24T18:16:13.217Z,20.17
2023-03-24T18:18:47.963Z,20.14
2023-03-24T18:21:15.535Z,20.07
2023-03-24T18:23:43.145Z,19.96
2023-03-24T18:26:10.822Z,19.82
2023-03-24T18:28:39.149Z,19.90
2023-03-24T18:31:10.478Z,19.70
2023-03-24T18:33:38.379Z,19.76
2023-03-24T18:36:06.277Z,19.75
2023-03-24T18:38:33.939Z,19.73
2023-03-24T18:41:08.191Z,19.84
2023-03-24T18:43:41.135Z,19.59
2023-03-24T18:49:18.441Z,19.56
2023-03-24T18:51:47.050Z,19.62
2023-03-24T18:54:16.060Z,19.61
2023-03-24T18:56:46.902Z,19.53
2023-03-24T18:59:17.217Z,19.44
2023-03-24T19:01:48.750Z,19.38
2023-03-24T19:04:17.719Z,19.31
2023-03-24T19:06:50.549Z,19.33
2023-03-24T19:09:22.885Z,19.31
2023-03-24T19:11:51.592Z,19.38
2023-03-24T19:18:30.446Z,19.28
2023-03-24T19:20:58.896Z,19.19
2023-03-24T19:23:26.809Z,19.16
2023-03-24T19:26:03.237Z,19.20
2023-03-24T19:28:44.192Z,19.01
2023-03-24T19:31:17.116Z,19.00
2023-03-24T19:33:48.926Z,19.00
2023-03-24T19:36:18.378Z,18.91
2023-03-24T19:38:46.092Z,18.89
2023-03-24T19:41:15.285Z,18.83
2023-03-24T19:43:43.110Z,18.70
2023-03-24T19:46:11.194Z,18.98
2023-03-24T19:48:39.020Z,18.90
2023-03-24T19:51:07.711Z,18.79
2023-03-24T19:53:35.613Z,18.53
2023-03-24T19:56:29.787Z,18.55
2023-03-24T19:59:04.429Z,18.42
2023-03-24T20:01:46.588Z,18.49
2023-03-24T20:04:21.367Z,18.52
2023-03-24T20:06:48.962Z,18.46
2023-03-24T20:09:16.781Z,18.36
2023-03-24T20:11:44.356Z,18.46
2023-03-24T20:14:23.359Z,18.31
2023-03-24T20:23:00.511Z,17.99
2023-03-24T20:25:32.075Z,17.83
2023-03-24T20:28:04.481Z,17.81
2023-03-24T20:31:16.233Z,17.82
2023-03-24T20:33:46.764Z,17.61
2023-03-24T20:36:15.847Z,17.77
2023-03-24T20:38:46.422Z,17.80
2023-03-24T20:41:35.854Z,17.98
2023-03-24T20:44:04.145Z,17.98
2023-03-24T20:47:01.489Z,18.13
2023-03-24T20:50:07.854Z,18.14
2023-03-24T20:53:02.311Z,17.86
2023-03-24T20:56:02.170Z,17.76
2023-03-24T20:58:32.811Z,17.58
2023-03-24T21:01:09.163Z,17.69
2023-03-24T21:03:39.024Z,17.99
2023-03-24T21:06:19.564Z,18.01
2023-03-24T21:12:34.715Z,17.94
2023-03-24T21:15:27.781Z,17.72
2023-03-24T21:18:06.860Z,17.85
2023-03-24T21:20:57.154Z,17.84
2023-03-24T21:23:25.646Z,17.86
2023-03-24T21:25:53.371Z,17.96
2023-03-24T21:28:21.155Z,17.90
2023-03-24T21:30:48.786Z,17.91
2023-03-24T21:33:16.802Z,17.76
2023-03-24T21:35:44.319Z,17.91
2023-03-24T21:38:13.131Z,17.61
2023-03-24T21:40:40.841Z,17.77
2023-03-24T21:43:10.844Z,17.80
2023-03-24T21:45:38.501Z,17.49
2023-03-24T21:48:07.240Z,17.63
2023-03-24T21:50:40.287Z,17.91
2023-03-24T21:53:15.397Z,17.69
2023-03-24T21:55:53.473Z,17.50
2023-03-24T21:58:23.887Z,17.43
2023-03-24T22:07:30.388Z,17.82
2023-03-24T22:11:22.611Z,17.61
2023-03-24T22:15:15.749Z,17.52
2023-03-24T22:23:05.839Z,17.76
2023-03-24T22:26:01.561Z,17.63
2023-03-24T22:28:29.667Z,17.50
2023-03-24T22:34:52.446Z,17.71
2023-03-24T22:37:27.548Z,17.59
2023-03-24T22:39:55.876Z,17.65
2023-03-24T22:42:28.875Z,17.74
2023-03-24T22:45:24.189Z,17.70
2023-03-24T22:48:29.130Z,17.72
2023-03-24T22:51:19.449Z,17.77
2023-03-24T22:55:09.097Z,17.81
2023-03-24T23:17:40.694Z,17.71
2023-03-24T23:20:33.215Z,17.65
2023-03-24T23:23:01.498Z,17.55
2023-03-24T23:25:32.983Z,17.61
2023-03-24T23:28:14.654Z,17.38
2023-03-24T23:30:57.792Z,17.57
2023-03-24T23:33:48.012Z,17.31
2023-03-24T23:36:36.486Z,17.40
2023-03-24T23:39:38.377Z,17.19
2023-03-24T23:42:36.288Z,17.01
2023-03-24T23:45:24.563Z,17.03
2023-03-24T23:48:00.773Z,17.04
2023-03-24T23:50:53.594Z,16.92
2023-03-24T23:53:36.229Z,17.05
2023-03-24T23:56:21.795Z,17.06
2023-03-24T23:58:49.677Z,17.12
